sensor_id;sensor_type;location;lat;lon;timestamp;P1;durP1;ratioP1;P2;durP2;ratioP2
56911;SDS011;42800;53.928;27.662;2022-11-02T00:01:42;20.50;;;7.10;;
56911;SDS011;42800;53.928;27.662;2022-11-02T00:04:09;19.92;;;6.85;;
56911;SDS011;42800;53.928;27.662;2022-11-02T00:06:35;19.58;;;7.82;;
56911;SDS011;42800;53.928;27.662;2022-11-02T00:09:02;30.77;;;9.15;;
56911;SDS011;42800;53.928;27.662;2022-11-02T00:11:29;21.00;;;7.95;;
56911;SDS011;42800;53.928;27.662;2022-11-02T00:13:55;19.05;;;7.95;;
56911;SDS011;42800;53.928;27.662;2022-11-02T00:16:22;21.75;;;8.85;;
56911;SDS011;42800;53.928;27.662;2022-11-02T00:18:50;24.38;;;8.18;;
56911;SDS011;42800;53.928;27.662;2022-11-02T00:21:20;17.33;;;7.47;;
56911;SDS011;42800;53.928;27.662;2022-11-02T00:23:48;28.52;;;8.23;;
56911;SDS011;42800;53.928;27.662;2022-11-02T00:26:14;17.75;;;7.82;;
56911;SDS011;42800;53.928;27.662;2022-11-02T00:28:42;22.20;;;8.13;;
56911;SDS011;42800;53.928;27.662;2022-11-02T00:31:08;16.85;;;6.85;;
56911;SDS011;42800;53.928;27.662;2022-11-02T00:33:34;23.85;;;8.02;;
56911;SDS011;42800;53.928;27.662;2022-11-02T00:36:01;21.58;;;7.70;;
56911;SDS011;42800;53.928;27.662;2022-11-02T00:38:27;21.60;;;9.18;;
56911;SDS011;42800;53.928;27.662;2022-11-02T00:40:56;17.60;;;7.05;;
56911;SDS011;42800;53.928;27.662;2022-11-02T00:43:22;18.90;;;8.80;;
56911;SDS011;42800;53.928;27.662;2022-11-02T00:45:49;18.30;;;7.75;;
56911;SDS011;42800;53.928;27.662;2022-11-02T00:48:15;18.02;;;8.13;;
56911;SDS011;42800;53.928;27.662;2022-11-02T00:50:41;17.65;;;7.88;;
56911;SDS011;42800;53.928;27.662;2022-11-02T00:53:08;22.15;;;8.13;;
56911;SDS011;42800;53.928;27.662;2022-11-02T00:55:34;22.35;;;8.63;;
56911;SDS011;42800;53.928;27.662;2022-11-02T00:58:00;18.73;;;8.23;;
56911;SDS011;42800;53.928;27.662;2022-11-02T01:00:27;20.23;;;7.35;;
56911;SDS011;42800;53.928;27.662;2022-11-02T01:02:54;15.52;;;7.43;;
56911;SDS011;42800;53.928;27.662;2022-11-02T01:05:23;15.43;;;7.18;;
56911;SDS011;42800;53.928;27.662;2022-11-02T01:07:51;20.48;;;7.93;;
56911;SDS011;42800;53.928;27.662;2022-11-02T01:10:17;20.85;;;8.02;;
56911;SDS011;42800;53.928;27.662;2022-11-02T01:12:44;18.08;;;8.00;;
56911;SDS011;42800;53.928;27.662;2022-11-02T01:15:10;23.67;;;8.30;;
56911;SDS011;42800;53.928;27.662;2022-11-02T01:17:36;28.98;;;9.98;;
56911;SDS011;42800;53.928;27.662;2022-11-02T01:20:04;23.55;;;8.48;;
56911;SDS011;42800;53.928;27.662;2022-11-02T01:22:31;25.33;;;8.40;;
56911;SDS011;42800;53.928;27.662;2022-11-02T01:24:58;20.63;;;8.57;;
56911;SDS011;42800;53.928;27.662;2022-11-02T01:27:24;15.73;;;7.40;;
56911;SDS011;42800;53.928;27.662;2022-11-02T01:29:50;19.65;;;8.10;;
56911;SDS011;42800;53.928;27.662;2022-11-02T01:32:17;22.27;;;8.45;;
56911;SDS011;42800;53.928;27.662;2022-11-02T01:34:43;18.42;;;7.50;;
56911;SDS011;42800;53.928;27.662;2022-11-02T01:37:10;19.75;;;8.38;;
56911;SDS011;42800;53.928;27.662;2022-11-02T01:39:36;25.63;;;7.43;;
56911;SDS011;42800;53.928;27.662;2022-11-02T01:42:02;22.08;;;8.00;;
56911;SDS011;42800;53.928;27.662;2022-11-02T01:44:40;25.42;;;8.50;;
56911;SDS011;42800;53.928;27.662;2022-11-02T01:47:10;20.55;;;8.15;;
56911;SDS011;42800;53.928;27.662;2022-11-02T01:49:42;18.25;;;8.45;;
56911;SDS011;42800;53.928;27.662;2022-11-02T01:52:11;16.63;;;7.88;;
56911;SDS011;42800;53.928;27.662;2022-11-02T01:54:41;23.10;;;9.40;;
56911;SDS011;42800;53.928;27.662;2022-11-02T01:57:11;22.75;;;9.05;;
56911;SDS011;42800;53.928;27.662;2022-11-02T01:59:40;22.98;;;8.48;;
56911;SDS011;42800;53.928;27.662;2022-11-02T02:02:10;18.67;;;8.75;;
56911;SDS011;42800;53.928;27.662;2022-11-02T02:04:40;21.10;;;8.18;;
56911;SDS011;42800;53.928;27.662;2022-11-02T02:07:07;25.45;;;8.27;;
56911;SDS011;42800;53.928;27.662;2022-11-02T02:09:36;14.93;;;7.65;;
56911;SDS011;42800;53.928;27.662;2022-11-02T02:12:02;25.65;;;8.32;;
56911;SDS011;42800;53.928;27.662;2022-11-02T02:14:30;23.48;;;8.35;;
56911;SDS011;42800;53.928;27.662;2022-11-02T02:17:12;25.90;;;8.57;;
56911;SDS011;42800;53.928;27.662;2022-11-02T02:19:49;17.83;;;7.90;;
56911;SDS011;42800;53.928;27.662;2022-11-02T02:22:40;18.70;;;8.40;;
56911;SDS011;42800;53.928;27.662;2022-11-02T02:28:23;22.65;;;7.68;;
56911;SDS011;42800;53.928;27.662;2022-11-02T02:30:59;19.15;;;8.13;;
56911;SDS011;42800;53.928;27.662;2022-11-02T02:33:31;17.83;;;8.48;;
56911;SDS011;42800;53.928;27.662;2022-11-02T02:36:02;19.08;;;7.78;;
56911;SDS011;42800;53.928;27.662;2022-11-02T02:38:32;18.33;;;8.45;;
56911;SDS011;42800;53.928;27.662;2022-11-02T02:41:07;23.83;;;8.50;;
56911;SDS011;42800;53.928;27.662;2022-11-02T02:43:39;21.13;;;8.05;;
56911;SDS011;42800;53.928;27.662;2022-11-02T02:46:09;14.95;;;7.38;;
56911;SDS011;42800;53.928;27.662;2022-11-02T02:48:40;20.92;;;8.43;;
56911;SDS011;42800;53.928;27.662;2022-11-02T02:51:11;21.98;;;8.75;;
56911;SDS011;42800;53.928;27.662;2022-11-02T02:53:44;20.15;;;8.80;;
56911;SDS011;42800;53.928;27.662;2022-11-02T02:56:13;15.10;;;8.18;;
56911;SDS011;42800;53.928;27.662;2022-11-02T02:58:44;19.05;;;8.60;;
56911;SDS011;42800;53.928;27.662;2022-11-02T03:01:15;19.17;;;8.48;;
56911;SDS011;42800;53.928;27.662;2022-11-02T03:03:43;21.05;;;9.32;;
56911;SDS011;42800;53.928;27.662;2022-11-02T03:06:13;20.33;;;8.48;;
56911;SDS011;42800;53.928;27.662;2022-11-02T03:08:46;15.85;;;8.30;;
56911;SDS011;42800;53.928;27.662;2022-11-02T03:11:17;22.95;;;8.65;;
56911;SDS011;42800;53.928;27.662;2022-11-02T03:13:50;29.98;;;8.70;;
56911;SDS011;42800;53.928;27.662;2022-11-02T03:16:33;20.60;;;8.98;;
56911;SDS011;42800;53.928;27.662;2022-11-02T03:19:10;19.42;;;9.15;;
56911;SDS011;42800;53.928;27.662;2022-11-02T03:21:46;21.40;;;8.43;;
56911;SDS011;42800;53.928;27.662;2022-11-02T03:24:18;22.20;;;8.40;;
56911;SDS011;42800;53.928;27.662;2022-11-02T03:26:52;18.40;;;9.20;;
56911;SDS011;42800;53.928;27.662;2022-11-02T03:29:31;17.67;;;8.30;;
56911;SDS011;42800;53.928;27.662;2022-11-02T03:32:06;21.70;;;9.32;;
56911;SDS011;42800;53.928;27.662;2022-11-02T03:34:37;18.42;;;9.05;;
56911;SDS011;42800;53.928;27.662;2022-11-02T03:37:06;22.50;;;9.10;;
56911;SDS011;42800;53.928;27.662;2022-11-02T03:39:40;25.88;;;9.63;;
56911;SDS011;42800;53.928;27.662;2022-11-02T03:42:10;19.00;;;8.77;;
56911;SDS011;42800;53.928;27.662;2022-11-02T03:44:41;22.60;;;10.23;;
56911;SDS011;42800;53.928;27.662;2022-11-02T03:47:10;22.73;;;8.88;;
56911;SDS011;42800;53.928;27.662;2022-11-02T03:49:39;19.90;;;8.77;;
56911;SDS011;42800;53.928;27.662;2022-11-02T03:52:09;23.83;;;8.63;;
56911;SDS011;42800;53.928;27.662;2022-11-02T03:54:41;31.13;;;10.23;;
56911;SDS011;42800;53.928;27.662;2022-11-02T03:57:11;23.92;;;9.18;;
56911;SDS011;42800;53.928;27.662;2022-11-02T03:59:44;22.70;;;9.25;;
56911;SDS011;42800;53.928;27.662;2022-11-02T04:02:11;20.23;;;9.50;;
56911;SDS011;42800;53.928;27.662;2022-11-02T04:04:46;22.48;;;9.25;;
56911;SDS011;42800;53.928;27.662;2022-11-02T04:07:14;21.17;;;9.45;;
56911;SDS011;42800;53.928;27.662;2022-11-02T04:09:44;20.65;;;9.15;;
56911;SDS011;42800;53.928;27.662;2022-11-02T04:12:10;18.25;;;8.73;;
56911;SDS011;42800;53.928;27.662;2022-11-02T04:14:55;23.40;;;9.65;;
56911;SDS011;42800;53.928;27.662;2022-11-02T04:17:21;28.55;;;10.52;;
56911;SDS011;42800;53.928;27.662;2022-11-02T04:20:06;23.52;;;9.57;;
56911;SDS011;42800;53.928;27.662;2022-11-02T04:22:33;31.30;;;9.75;;
56911;SDS011;42800;53.928;27.662;2022-11-02T04:25:17;23.58;;;8.35;;
56911;SDS011;42800;53.928;27.662;2022-11-02T04:27:44;21.17;;;9.43;;
56911;SDS011;42800;53.928;27.662;2022-11-02T04:30:13;29.77;;;10.18;;
56911;SDS011;42800;53.928;27.662;2022-11-02T04:32:41;26.05;;;10.00;;
56911;SDS011;42800;53.928;27.662;2022-11-02T04:35:26;24.63;;;10.05;;
56911;SDS011;42800;53.928;27.662;2022-11-02T04:37:52;28.08;;;9.68;;
56911;SDS011;42800;53.928;27.662;2022-11-02T04:40:36;32.40;;;9.73;;
56911;SDS011;42800;53.928;27.662;2022-11-02T04:43:03;32.72;;;11.48;;
56911;SDS011;42800;53.928;27.662;2022-11-02T04:45:30;25.33;;;9.65;;
56911;SDS011;42800;53.928;27.662;2022-11-02T04:47:59;23.30;;;8.82;;
56911;SDS011;42800;53.928;27.662;2022-11-02T04:50:25;28.42;;;11.25;;
56911;SDS011;42800;53.928;27.662;2022-11-02T04:52:54;27.85;;;9.77;;
56911;SDS011;42800;53.928;27.662;2022-11-02T04:55:20;22.48;;;9.40;;
56911;SDS011;42800;53.928;27.662;2022-11-02T04:57:47;20.88;;;9.50;;
56911;SDS011;42800;53.928;27.662;2022-11-02T05:00:13;38.05;;;10.52;;
56911;SDS011;42800;53.928;27.662;2022-11-02T05:02:41;28.67;;;9.48;;
56911;SDS011;42800;53.928;27.662;2022-11-02T05:05:07;24.55;;;9.48;;
56911;SDS011;42800;53.928;27.662;2022-11-02T05:07:36;20.23;;;10.18;;
56911;SDS011;42800;53.928;27.662;2022-11-02T05:10:03;29.60;;;10.90;;
56911;SDS011;42800;53.928;27.662;2022-11-02T05:12:30;30.23;;;10.25;;
56911;SDS011;42800;53.928;27.662;2022-11-02T05:14:56;24.30;;;10.20;;
56911;SDS011;42800;53.928;27.662;2022-11-02T05:17:22;20.05;;;9.20;;
56911;SDS011;42800;53.928;27.662;2022-11-02T05:19:49;25.23;;;9.40;;
56911;SDS011;42800;53.928;27.662;2022-11-02T05:22:15;43.30;;;10.85;;
56911;SDS011;42800;53.928;27.662;2022-11-02T05:24:43;24.08;;;9.43;;
56911;SDS011;42800;53.928;27.662;2022-11-02T05:27:09;24.20;;;9.52;;
56911;SDS011;42800;53.928;27.662;2022-11-02T05:29:35;22.75;;;10.52;;
56911;SDS011;42800;53.928;27.662;2022-11-02T05:32:02;23.85;;;10.10;;
56911;SDS011;42800;53.928;27.662;2022-11-02T05:34:28;28.55;;;10.65;;
56911;SDS011;42800;53.928;27.662;2022-11-02T05:36:55;25.27;;;10.90;;
56911;SDS011;42800;53.928;27.662;2022-11-02T05:39:21;25.05;;;11.00;;
56911;SDS011;42800;53.928;27.662;2022-11-02T05:41:48;22.92;;;11.18;;
56911;SDS011;42800;53.928;27.662;2022-11-02T05:44:14;30.08;;;11.20;;
56911;SDS011;42800;53.928;27.662;2022-11-02T05:46:41;28.17;;;11.02;;
56911;SDS011;42800;53.928;27.662;2022-11-02T05:49:08;32.55;;;11.02;;
56911;SDS011;42800;53.928;27.662;2022-11-02T05:51:34;34.72;;;10.95;;
56911;SDS011;42800;53.928;27.662;2022-11-02T05:54:01;32.78;;;12.38;;
56911;SDS011;42800;53.928;27.662;2022-11-02T05:56:27;26.88;;;12.35;;
56911;SDS011;42800;53.928;27.662;2022-11-02T05:58:53;24.27;;;10.93;;
56911;SDS011;42800;53.928;27.662;2022-11-02T06:01:20;33.17;;;11.23;;
56911;SDS011;42800;53.928;27.662;2022-11-02T06:03:46;30.42;;;10.48;;
56911;SDS011;42800;53.928;27.662;2022-11-02T06:06:13;31.42;;;10.73;;
56911;SDS011;42800;53.928;27.662;2022-11-02T06:08:39;38.35;;;12.20;;
56911;SDS011;42800;53.928;27.662;2022-11-02T06:11:06;36.45;;;10.82;;
56911;SDS011;42800;53.928;27.662;2022-11-02T06:13:34;30.80;;;10.35;;
56911;SDS011;42800;53.928;27.662;2022-11-02T06:16:01;29.30;;;11.05;;
56911;SDS011;42800;53.928;27.662;2022-11-02T06:18:28;34.10;;;10.35;;
56911;SDS011;42800;53.928;27.662;2022-11-02T06:20:55;22.42;;;10.65;;
56911;SDS011;42800;53.928;27.662;2022-11-02T06:23:22;21.38;;;10.00;;
56911;SDS011;42800;53.928;27.662;2022-11-02T06:25:49;24.23;;;10.40;;
56911;SDS011;42800;53.928;27.662;2022-11-02T06:28:17;22.00;;;9.80;;
56911;SDS011;42800;53.928;27.662;2022-11-02T06:30:43;26.00;;;9.85;;
56911;SDS011;42800;53.928;27.662;2022-11-02T06:33:09;26.38;;;10.00;;
56911;SDS011;42800;53.928;27.662;2022-11-02T06:35:36;20.42;;;9.65;;
56911;SDS011;42800;53.928;27.662;2022-11-02T06:38:02;29.38;;;11.00;;
56911;SDS011;42800;53.928;27.662;2022-11-02T06:40:28;25.85;;;11.23;;
56911;SDS011;42800;53.928;27.662;2022-11-02T06:42:55;25.60;;;11.25;;
56911;SDS011;42800;53.928;27.662;2022-11-02T06:45:22;29.23;;;11.23;;
56911;SDS011;42800;53.928;27.662;2022-11-02T06:47:49;35.92;;;11.68;;
56911;SDS011;42800;53.928;27.662;2022-11-02T06:50:15;24.75;;;10.90;;
56911;SDS011;42800;53.928;27.662;2022-11-02T06:52:43;25.08;;;11.38;;
56911;SDS011;42800;53.928;27.662;2022-11-02T06:55:10;29.02;;;13.80;;
56911;SDS011;42800;53.928;27.662;2022-11-02T06:57:37;30.88;;;15.30;;
56911;SDS011;42800;53.928;27.662;2022-11-02T07:00:06;31.02;;;13.77;;
56911;SDS011;42800;53.928;27.662;2022-11-02T07:02:35;27.05;;;11.43;;
56911;SDS011;42800;53.928;27.662;2022-11-02T07:05:02;27.65;;;12.00;;
56911;SDS011;42800;53.928;27.662;2022-11-02T07:07:28;29.30;;;11.85;;
56911;SDS011;42800;53.928;27.662;2022-11-02T07:09:54;31.65;;;12.20;;
56911;SDS011;42800;53.928;27.662;2022-11-02T07:12:21;25.40;;;11.15;;
56911;SDS011;42800;53.928;27.662;2022-11-02T07:14:47;34.80;;;14.55;;
56911;SDS011;42800;53.928;27.662;2022-11-02T07:17:14;59.30;;;18.15;;
56911;SDS011;42800;53.928;27.662;2022-11-02T07:19:40;35.45;;;15.20;;
56911;SDS011;42800;53.928;27.662;2022-11-02T07:22:07;43.08;;;14.70;;
56911;SDS011;42800;53.928;27.662;2022-11-02T07:24:33;36.63;;;12.77;;
56911;SDS011;42800;53.928;27.662;2022-11-02T07:26:59;55.50;;;12.57;;
56911;SDS011;42800;53.928;27.662;2022-11-02T07:29:26;32.30;;;11.50;;
56911;SDS011;42800;53.928;27.662;2022-11-02T07:31:52;27.67;;;11.93;;
56911;SDS011;42800;53.928;27.662;2022-11-02T07:34:19;30.48;;;10.70;;
56911;SDS011;42800;53.928;27.662;2022-11-02T07:36:46;24.52;;;11.13;;
56911;SDS011;42800;53.928;27.662;2022-11-02T07:39:13;25.17;;;11.30;;
56911;SDS011;42800;53.928;27.662;2022-11-02T07:41:39;19.75;;;9.82;;
56911;SDS011;42800;53.928;27.662;2022-11-02T07:44:05;23.83;;;10.52;;
56911;SDS011;42800;53.928;27.662;2022-11-02T07:46:32;37.17;;;19.92;;
56911;SDS011;42800;53.928;27.662;2022-11-02T07:48:58;34.72;;;14.13;;
56911;SDS011;42800;53.928;27.662;2022-11-02T07:51:24;29.67;;;10.50;;
56911;SDS011;42800;53.928;27.662;2022-11-02T07:53:51;19.17;;;9.85;;
56911;SDS011;42800;53.928;27.662;2022-11-02T07:56:18;22.50;;;9.43;;
56911;SDS011;42800;53.928;27.662;2022-11-02T07:58:44;21.55;;;10.20;;
56911;SDS011;42800;53.928;27.662;2022-11-02T08:01:11;19.90;;;8.82;;
56911;SDS011;42800;53.928;27.662;2022-11-02T08:03:37;25.60;;;10.27;;
56911;SDS011;42800;53.928;27.662;2022-11-02T08:06:03;20.20;;;10.15;;
56911;SDS011;42800;53.928;27.662;2022-11-02T08:08:30;19.77;;;9.52;;
56911;SDS011;42800;53.928;27.662;2022-11-02T08:11:01;16.42;;;8.95;;
56911;SDS011;42800;53.928;27.662;2022-11-02T08:13:29;26.52;;;9.38;;
56911;SDS011;42800;53.928;27.662;2022-11-02T08:15:56;59.60;;;12.43;;
56911;SDS011;42800;53.928;27.662;2022-11-02T08:18:22;21.50;;;8.90;;
56911;SDS011;42800;53.928;27.662;2022-11-02T08:20:50;25.33;;;9.32;;
56911;SDS011;42800;53.928;27.662;2022-11-02T08:23:17;19.90;;;9.15;;
56911;SDS011;42800;53.928;27.662;2022-11-02T08:25:45;21.55;;;9.35;;
56911;SDS011;42800;53.928;27.662;2022-11-02T08:28:14;20.70;;;9.57;;
56911;SDS011;42800;53.928;27.662;2022-11-02T08:30:43;24.17;;;9.57;;
56911;SDS011;42800;53.928;27.662;2022-11-02T08:33:10;20.75;;;8.98;;
56911;SDS011;42800;53.928;27.662;2022-11-02T08:35:39;24.95;;;10.82;;
56911;SDS011;42800;53.928;27.662;2022-11-02T08:38:06;26.08;;;9.65;;
56911;SDS011;42800;53.928;27.662;2022-11-02T08:40:33;20.52;;;9.48;;
56911;SDS011;42800;53.928;27.662;2022-11-02T08:43:01;16.40;;;8.40;;
56911;SDS011;42800;53.928;27.662;2022-11-02T08:45:29;24.40;;;8.65;;
56911;SDS011;42800;53.928;27.662;2022-11-02T08:47:56;17.60;;;8.60;;
56911;SDS011;42800;53.928;27.662;2022-11-02T08:50:22;18.92;;;8.18;;
56911;SDS011;42800;53.928;27.662;2022-11-02T08:52:49;20.48;;;8.63;;
56911;SDS011;42800;53.928;27.662;2022-11-02T08:55:16;20.73;;;8.82;;
56911;SDS011;42800;53.928;27.662;2022-11-02T08:57:45;24.10;;;9.65;;
56911;SDS011;42800;53.928;27.662;2022-11-02T09:00:13;31.35;;;11.43;;
56911;SDS011;42800;53.928;27.662;2022-11-02T09:02:40;18.30;;;8.18;;
56911;SDS011;42800;53.928;27.662;2022-11-02T09:05:08;26.27;;;9.02;;
56911;SDS011;42800;53.928;27.662;2022-11-02T09:07:34;27.27;;;16.13;;
56911;SDS011;42800;53.928;27.662;2022-11-02T09:10:01;28.02;;;12.25;;
56911;SDS011;42800;53.928;27.662;2022-11-02T09:12:28;27.00;;;12.07;;
56911;SDS011;42800;53.928;27.662;2022-11-02T09:14:54;18.42;;;9.70;;
56911;SDS011;42800;53.928;27.662;2022-11-02T09:17:20;18.52;;;8.32;;
56911;SDS011;42800;53.928;27.662;2022-11-02T09:19:47;26.52;;;8.93;;
56911;SDS011;42800;53.928;27.662;2022-11-02T09:22:13;22.42;;;8.52;;
56911;SDS011;42800;53.928;27.662;2022-11-02T09:24:40;18.02;;;8.25;;
56911;SDS011;42800;53.928;27.662;2022-11-02T09:27:06;17.48;;;8.75;;
56911;SDS011;42800;53.928;27.662;2022-11-02T09:29:32;29.10;;;8.68;;
56911;SDS011;42800;53.928;27.662;2022-11-02T09:31:58;20.63;;;8.80;;
56911;SDS011;42800;53.928;27.662;2022-11-02T09:34:25;19.80;;;9.38;;
56911;SDS011;42800;53.928;27.662;2022-11-02T09:36:52;25.35;;;9.10;;
56911;SDS011;42800;53.928;27.662;2022-11-02T09:39:18;21.77;;;8.60;;
56911;SDS011;42800;53.928;27.662;2022-11-02T09:41:59;20.88;;;7.68;;
56911;SDS011;42800;53.928;27.662;2022-11-02T09:44:34;16.88;;;8.48;;
56911;SDS011;42800;53.928;27.662;2022-11-02T09:47:09;15.52;;;8.18;;
56911;SDS011;42800;53.928;27.662;2022-11-02T09:49:37;29.10;;;7.78;;
56911;SDS011;42800;53.928;27.662;2022-11-02T09:52:06;18.65;;;8.85;;
56911;SDS011;42800;53.928;27.662;2022-11-02T09:54:39;23.02;;;10.10;;
56911;SDS011;42800;53.928;27.662;2022-11-02T09:57:09;28.55;;;10.32;;
56911;SDS011;42800;53.928;27.662;2022-11-02T09:59:39;21.20;;;10.10;;
56911;SDS011;42800;53.928;27.662;2022-11-02T10:02:09;16.73;;;9.85;;
56911;SDS011;42800;53.928;27.662;2022-11-02T10:04:53;20.38;;;8.70;;
56911;SDS011;42800;53.928;27.662;2022-11-02T10:10:20;15.90;;;8.73;;
56911;SDS011;42800;53.928;27.662;2022-11-02T10:12:57;16.92;;;8.55;;
56911;SDS011;42800;53.928;27.662;2022-11-02T10:15:33;21.52;;;8.48;;
56911;SDS011;42800;53.928;27.662;2022-11-02T10:18:03;28.58;;;8.55;;
56911;SDS011;42800;53.928;27.662;2022-11-02T10:20:32;26.65;;;9.60;;
56911;SDS011;42800;53.928;27.662;2022-11-02T10:23:03;21.77;;;8.65;;
56911;SDS011;42800;53.928;27.662;2022-11-02T10:25:32;17.75;;;9.82;;
56911;SDS011;42800;53.928;27.662;2022-11-02T10:28:02;20.20;;;8.75;;
56911;SDS011;42800;53.928;27.662;2022-11-02T10:30:34;26.27;;;9.60;;
56911;SDS011;42800;53.928;27.662;2022-11-02T10:33:03;27.83;;;12.77;;
56911;SDS011;42800;53.928;27.662;2022-11-02T10:35:38;29.13;;;10.25;;
56911;SDS011;42800;53.928;27.662;2022-11-02T10:38:14;17.25;;;10.35;;
56911;SDS011;42800;53.928;27.662;2022-11-02T10:40:57;28.10;;;8.90;;
56911;SDS011;42800;53.928;27.662;2022-11-02T10:43:57;26.05;;;9.00;;
56911;SDS011;42800;53.928;27.662;2022-11-02T10:46:36;17.35;;;8.18;;
56911;SDS011;42800;53.928;27.662;2022-11-02T10:49:15;19.20;;;9.73;;
56911;SDS011;42800;53.928;27.662;2022-11-02T10:51:54;19.83;;;9.60;;
56911;SDS011;42800;53.928;27.662;2022-11-02T10:54:20;17.48;;;8.85;;
56911;SDS011;42800;53.928;27.662;2022-11-02T10:56:47;19.95;;;9.88;;
56911;SDS011;42800;53.928;27.662;2022-11-02T10:59:14;25.17;;;8.68;;
56911;SDS011;42800;53.928;27.662;2022-11-02T11:01:45;20.75;;;9.52;;
56911;SDS011;42800;53.928;27.662;2022-11-02T11:04:28;26.67;;;9.07;;
56911;SDS011;42800;53.928;27.662;2022-11-02T11:06:56;21.73;;;9.15;;
56911;SDS011;42800;53.928;27.662;2022-11-02T11:09:29;17.98;;;8.88;;
56911;SDS011;42800;53.928;27.662;2022-11-02T11:12:02;21.30;;;9.00;;
56911;SDS011;42800;53.928;27.662;2022-11-02T11:14:31;21.35;;;9.38;;
56911;SDS011;42800;53.928;27.662;2022-11-02T11:17:03;20.98;;;8.70;;
56911;SDS011;42800;53.928;27.662;2022-11-02T11:19:40;20.23;;;9.15;;
56911;SDS011;42800;53.928;27.662;2022-11-02T11:22:22;22.75;;;9.68;;
56911;SDS011;42800;53.928;27.662;2022-11-02T11:24:51;20.52;;;8.27;;
56911;SDS011;42800;53.928;27.662;2022-11-02T11:27:18;20.38;;;9.27;;
56911;SDS011;42800;53.928;27.662;2022-11-02T11:29:47;20.60;;;9.05;;
56911;SDS011;42800;53.928;27.662;2022-11-02T11:32:15;27.80;;;8.35;;
56911;SDS011;42800;53.928;27.662;2022-11-02T11:34:45;20.08;;;8.10;;
56911;SDS011;42800;53.928;27.662;2022-11-02T11:37:18;18.20;;;7.95;;
56911;SDS011;42800;53.928;27.662;2022-11-02T11:39:45;17.10;;;7.82;;
56911;SDS011;42800;53.928;27.662;2022-11-02T11:42:17;19.55;;;8.57;;
56911;SDS011;42800;53.928;27.662;2022-11-02T11:44:49;17.00;;;8.45;;
56911;SDS011;42800;53.928;27.662;2022-11-02T11:47:25;19.27;;;8.23;;
56911;SDS011;42800;53.928;27.662;2022-11-02T11:49:54;18.25;;;8.50;;
56911;SDS011;42800;53.928;27.662;2022-11-02T11:52:26;20.80;;;9.18;;
56911;SDS011;42800;53.928;27.662;2022-11-02T11:54:54;20.45;;;9.30;;
56911;SDS011;42800;53.928;27.662;2022-11-02T11:57:24;21.98;;;10.93;;
56911;SDS011;42800;53.928;27.662;2022-11-02T11:59:53;21.73;;;10.30;;
56911;SDS011;42800;53.928;27.662;2022-11-02T12:02:23;26.63;;;10.68;;
56911;SDS011;42800;53.928;27.662;2022-11-02T12:04:51;21.85;;;9.95;;
56911;SDS011;42800;53.928;27.662;2022-11-02T12:07:28;23.45;;;9.90;;
56911;SDS011;42800;53.928;27.662;2022-11-02T12:10:12;25.30;;;8.82;;
56911;SDS011;42800;53.928;27.662;2022-11-02T12:12:48;21.42;;;8.90;;
56911;SDS011;42800;53.928;27.662;2022-11-02T12:15:28;20.23;;;9.15;;
56911;SDS011;42800;53.928;27.662;2022-11-02T12:18:28;18.55;;;9.07;;
56911;SDS011;42800;53.928;27.662;2022-11-02T12:21:04;23.67;;;9.75;;
56911;SDS011;42800;53.928;27.662;2022-11-02T12:23:53;22.98;;;10.45;;
56911;SDS011;42800;53.928;27.662;2022-11-02T12:26:30;34.55;;;9.95;;
56911;SDS011;42800;53.928;27.662;2022-11-02T12:29:18;23.27;;;8.70;;
56911;SDS011;42800;53.928;27.662;2022-11-02T12:32:03;23.15;;;9.65;;
56911;SDS011;42800;53.928;27.662;2022-11-02T12:34:45;25.00;;;9.63;;
56911;SDS011;42800;53.928;27.662;2022-11-02T12:37:33;39.47;;;11.05;;
56911;SDS011;42800;53.928;27.662;2022-11-02T12:40:17;19.52;;;8.52;;
56911;SDS011;42800;53.928;27.662;2022-11-02T12:42:51;20.42;;;9.10;;
56911;SDS011;42800;53.928;27.662;2022-11-02T12:45:30;20.17;;;9.98;;
56911;SDS011;42800;53.928;27.662;2022-11-02T12:48:06;26.58;;;10.90;;
56911;SDS011;42800;53.928;27.662;2022-11-02T12:50:42;24.63;;;10.20;;
56911;SDS011;42800;53.928;27.662;2022-11-02T12:53:20;24.83;;;11.30;;
56911;SDS011;42800;53.928;27.662;2022-11-02T12:56:00;30.48;;;12.63;;
56911;SDS011;42800;53.928;27.662;2022-11-02T12:58:30;25.85;;;9.15;;
56911;SDS011;42800;53.928;27.662;2022-11-02T13:01:02;22.23;;;9.70;;
56911;SDS011;42800;53.928;27.662;2022-11-02T13:03:35;24.33;;;10.63;;
56911;SDS011;42800;53.928;27.662;2022-11-02T13:06:09;20.50;;;10.65;;
56911;SDS011;42800;53.928;27.662;2022-11-02T13:08:41;24.02;;;9.75;;
56911;SDS011;42800;53.928;27.662;2022-11-02T13:11:14;32.10;;;11.17;;
56911;SDS011;42800;53.928;27.662;2022-11-02T13:13:48;32.63;;;11.38;;
56911;SDS011;42800;53.928;27.662;2022-11-02T13:16:19;29.63;;;10.13;;
56911;SDS011;42800;53.928;27.662;2022-11-02T13:18:52;24.92;;;11.85;;
56911;SDS011;42800;53.928;27.662;2022-11-02T13:21:22;29.42;;;11.90;;
56911;SDS011;42800;53.928;27.662;2022-11-02T13:23:55;24.40;;;11.07;;
56911;SDS011;42800;53.928;27.662;2022-11-02T13:26:25;34.42;;;10.82;;
56911;SDS011;42800;53.928;27.662;2022-11-02T13:28:55;21.90;;;10.00;;
56911;SDS011;42800;53.928;27.662;2022-11-02T13:31:27;32.60;;;10.73;;
56911;SDS011;42800;53.928;27.662;2022-11-02T13:33:57;27.80;;;10.82;;
56911;SDS011;42800;53.928;27.662;2022-11-02T13:36:28;22.25;;;10.25;;
56911;SDS011;42800;53.928;27.662;2022-11-02T13:38:55;26.73;;;11.55;;
56911;SDS011;42800;53.928;27.662;2022-11-02T13:41:35;25.33;;;10.23;;
56911;SDS011;42800;53.928;27.662;2022-11-02T13:44:27;22.20;;;11.10;;
56911;SDS011;42800;53.928;27.662;2022-11-02T13:47:13;21.00;;;10.95;;
56911;SDS011;42800;53.928;27.662;2022-11-02T13:50:06;31.80;;;12.18;;
56911;SDS011;42800;53.928;27.662;2022-11-02T13:52:37;27.08;;;12.48;;
56911;SDS011;42800;53.928;27.662;2022-11-02T13:55:07;27.17;;;13.10;;
56911;SDS011;42800;53.928;27.662;2022-11-02T13:57:41;30.15;;;12.43;;
56911;SDS011;42800;53.928;27.662;2022-11-02T14:00:25;27.73;;;11.45;;
56911;SDS011;42800;53.928;27.662;2022-11-02T14:02:57;28.92;;;12.18;;
56911;SDS011;42800;53.928;27.662;2022-11-02T14:05:28;25.98;;;11.50;;
56911;SDS011;42800;53.928;27.662;2022-11-02T14:07:58;30.33;;;13.38;;
56911;SDS011;42800;53.928;27.662;2022-11-02T14:10:26;28.05;;;13.23;;
56911;SDS011;42800;53.928;27.662;2022-11-02T14:12:53;31.63;;;13.48;;
56911;SDS011;42800;53.928;27.662;2022-11-02T14:18:26;36.85;;;12.30;;
56911;SDS011;42800;53.928;27.662;2022-11-02T14:20:55;27.23;;;12.43;;
56911;SDS011;42800;53.928;27.662;2022-11-02T14:23:34;28.10;;;11.80;;
56911;SDS011;42800;53.928;27.662;2022-11-02T14:26:02;35.72;;;11.68;;
56911;SDS011;42800;53.928;27.662;2022-11-02T14:28:32;25.33;;;12.23;;
56911;SDS011;42800;53.928;27.662;2022-11-02T14:31:30;27.20;;;11.93;;
56911;SDS011;42800;53.928;27.662;2022-11-02T14:34:09;26.42;;;12.07;;
56911;SDS011;42800;53.928;27.662;2022-11-02T14:36:53;27.67;;;12.87;;
56911;SDS011;42800;53.928;27.662;2022-11-02T14:39:30;24.05;;;12.20;;
56911;SDS011;42800;53.928;27.662;2022-11-02T14:42:19;29.13;;;13.00;;
56911;SDS011;42800;53.928;27.662;2022-11-02T14:45:19;31.00;;;13.43;;